Gainesville, GA

2:30 PM EDT en Agosto 20, 2014 (GMT -0400)
Access-WDUN | Change Station
CLOSE
Current Station
Estación meteorológica personal
Location: Gainesville, GA
Altura: 1279 ft
Estaciones meteorológicas cercanas

Alt 1279 ft 34.32 °N, 83.83 °W | Updated 8 seconds ago

Thunderstorm
Tormenta
73.3 ° F
Sensación térmica 73 ° F
N
2.0
Viento Variable Viento desde ONO
Gusts 13.0 mph

Hoy
Alta -- | Baja -- ° F
--% Posibilidad de precipitaciones
Ayer
Alta -- | Baja -- ° F
Precip. -- pul
7:00 AM 8:16 PM
Creciente menguante, 20% visible
Presión 30.09 pul
Visibilidad 10.0 Millas
Nubes Muy nublado 3300 ft
Índice de calor 73 ° F
Punto de rocío 68 ° F
Humedad 82%
Precipitaciones 0.09 pul
Espesor de la nieve No disponible.
UV 6 de una escala de 12
Polen 8.10 de una escala de 12
Calidad del aire No disponible.
Flu Activity No disponible.
SPECI KGVL 201808Z AUTO 30009KT 10SM TS BKN033 31/22 A3009 RMK AO2 LTG DSNT N AND NW RAB00E03 TSB02 P0000 T03110222

More Conditions Fewer Conditions

Presión 30.09 pul
Visibilidad 10.0 Millas
Nubes Muy nublado 3300 ft
Índice de calor 73 ° F
Punto de rocío 68 ° F
Humedad 82%
Precipitaciones 0.09 pul
Espesor de la nieve No disponible.
UV 6 de una escala de 12
Polen 8.10 de una escala de 12
Calidad del aire No disponible.
Flu Activity No disponible.
SPECI KGVL 201808Z AUTO 30009KT 10SM TS BKN033 31/22 A3009 RMK AO2 LTG DSNT N AND NW RAB00E03 TSB02 P0000 T03110222

More Conditions Fewer Conditions

10-Day Weather Forecast

Almanac

Astronomía

Aug. 20, 2014 Salida Puesta
Hora real 7:00 AM EDT 8:16 PM EDT
Crepúsculo civil 6:33 AM EDT 8:42 PM EDT
Crepúsculo náutico 6:02 AM EDT 9:14 PM EDT
Crepúsculo astronómico 5:29 AM EDT 9:46 PM EDT
Luna 2:43 AM EDT 4:56 PM EDT
Horas de luz 14h 09m
Horas de luz
13h 16m
Tomorrow will be 1m 56s shorter.
Creciente menguante, 20% of the Moon is Illuminated
Hoy
Creciente menguante
Ago 25
Nueva
Sep 2
Cuarto creciente
Sep 8
Luna llena
Sep 15
Cuarto menguante

Extremos de hoy

Máximos del estado Bajos del estado

Community

WunderPhotos

Upload Photos

1,745,707 ¡fotos cargadas!

WunderBlogs® & News

Nearby

Grosos de nieve

Estación Profundido Altura
No tenemos constancia de nieve nueva.

Actividad de terremotos

Ciudad Distance Mag. Tiempo y dato
No hay informes recientes de la actividad sísmica.
Magnitud mínima muestra es 2,5.

Temperaturas de aguas costeras

Lugar Temperatura
Sin partes meteorológicos de las estaciones

Estaciones meteorológicas cercanas